Leonard, Michigan
Current Conditions -  °F | °C
As of 11:14 AM on Thursday 30 Oct 2014 (Local Time) from KD95 Reporting Station
Overcast Overcast  
Wind Chill: 43°   Ceiling: 3800
Heat Index: 43°   Visibility: 10mi
Dew Point: 33°   Wind: 0mph
Humidity: 69%   Direction: NA
Pressure: 30.13"   Gusts: NA
Location:  42.87°N, 83.14°W
Report Text: KD95 301514Z AUTO 00000KT 10SM OVC038 06/01 A3013 RMK AO2 T00600006
Loading
Personal Weather Stations






























Interactive Weather Map
Tropical Storm Tracking
New forecast layout! Learn more

10-Day Weather Forecast

Advertisements
Track Severe Weather on mobile